createdAt,value
2022-08-29T00:01:36.453Z,69.00
2022-08-29T00:04:09.049Z,68.92
2022-08-29T00:06:41.022Z,68.94
2022-08-29T00:09:13.133Z,68.77
2022-08-29T00:11:46.382Z,68.83
2022-08-29T00:14:20.861Z,68.74
2022-08-29T00:16:56.108Z,68.79
2022-08-29T00:19:28.143Z,68.72
2022-08-29T00:21:59.993Z,68.40
2022-08-29T00:24:32.056Z,68.34
2022-08-29T00:27:04.138Z,68.16
2022-08-29T00:29:36.237Z,68.43
2022-08-29T00:32:08.596Z,68.73
2022-08-29T00:34:40.462Z,69.13
2022-08-29T00:37:12.427Z,69.14
2022-08-29T00:39:44.726Z,68.99
2022-08-29T00:42:16.595Z,69.13
2022-08-29T00:44:48.454Z,69.02
2022-08-29T00:47:24.214Z,69.60
2022-08-29T00:49:58.281Z,69.42
2022-08-29T00:52:35.808Z,69.55
2022-08-29T00:55:12.318Z,69.52
2022-08-29T00:57:49.487Z,69.85
2022-08-29T01:00:22.215Z,69.85
2022-08-29T01:02:55.096Z,69.97
2022-08-29T01:05:27.872Z,70.40
2022-08-29T01:08:00.642Z,70.55
2022-08-29T01:10:50.215Z,70.87
2022-08-29T01:13:23.607Z,71.21
2022-08-29T01:15:56.194Z,71.34
2022-08-29T01:18:30.810Z,71.48
2022-08-29T01:21:09.240Z,71.80
2022-08-29T01:23:48.752Z,72.02
2022-08-29T01:26:21.011Z,72.35
2022-08-29T01:28:55.681Z,72.92
2022-08-29T01:31:42.182Z,73.10
2022-08-29T01:34:22.853Z,73.57
2022-08-29T01:36:57.504Z,73.73
2022-08-29T01:39:31.969Z,74.02
2022-08-29T01:42:06.336Z,74.11
2022-08-29T01:44:38.897Z,74.44
2022-08-29T01:47:12.233Z,74.31
2022-08-29T01:49:46.804Z,74.67
2022-08-29T01:52:19.292Z,74.79
2022-08-29T01:54:51.571Z,74.75
2022-08-29T01:57:23.906Z,74.84
2022-08-29T01:59:56.885Z,75.16
2022-08-29T02:02:30.314Z,75.21
2022-08-29T02:05:02.168Z,75.56
2022-08-29T02:07:34.085Z,75.59
2022-08-29T02:10:08.395Z,75.59
2022-08-29T02:12:40.334Z,75.67
2022-08-29T02:15:14.771Z,75.80
2022-08-29T02:17:48.580Z,75.58
2022-08-29T02:20:20.637Z,75.71
2022-08-29T02:22:52.653Z,75.69
2022-08-29T02:25:42.986Z,75.76
2022-08-29T02:28:18.209Z,76.00
2022-08-29T02:30:56.331Z,75.98
2022-08-29T02:33:29.753Z,76.28
2022-08-29T02:36:04.395Z,76.27
2022-08-29T02:38:36.557Z,76.37
2022-08-29T02:41:13.626Z,76.51
2022-08-29T02:43:46.142Z,76.65
2022-08-29T02:46:20.727Z,76.65
2022-08-29T02:49:00.019Z,76.88
2022-08-29T02:51:34.664Z,76.94
2022-08-29T02:54:07.049Z,76.82
2022-08-29T02:56:39.366Z,77.04
2022-08-29T02:59:11.470Z,76.82
2022-08-29T03:01:43.327Z,76.90
2022-08-29T03:04:15.230Z,76.97
2022-08-29T03:06:47.147Z,77.13
2022-08-29T03:09:19.005Z,77.00
2022-08-29T03:11:52.664Z,77.11
2022-08-29T03:14:24.555Z,77.17
2022-08-29T03:16:56.463Z,77.13
2022-08-29T03:19:29.150Z,77.13
2022-08-29T03:22:01.871Z,77.42
2022-08-29T03:24:35.148Z,77.28
2022-08-29T03:27:07.716Z,77.36
2022-08-29T03:29:39.618Z,77.53
2022-08-29T03:32:11.859Z,77.70
2022-08-29T03:34:43.693Z,77.69
2022-08-29T03:37:15.625Z,77.53
2022-08-29T03:39:47.861Z,77.88
2022-08-29T03:42:19.878Z,77.69
2022-08-29T03:44:52.173Z,77.85
2022-08-29T03:47:24.261Z,78.04
2022-08-29T03:49:56.144Z,78.09
2022-08-29T03:52:28.005Z,78.01
2022-08-29T03:55:00.717Z,78.23
2022-08-29T03:57:33.818Z,78.41
2022-08-29T04:00:12.111Z,78.11
2022-08-29T04:02:44.680Z,78.24
2022-08-29T04:05:18.191Z,78.30
2022-08-29T04:07:53.831Z,78.20
2022-08-29T04:10:28.516Z,77.74
2022-08-29T04:13:01.551Z,77.69
2022-08-29T04:15:33.736Z,77.34
2022-08-29T04:18:08.683Z,77.43
2022-08-29T04:20:44.977Z,77.16
2022-08-29T04:23:17.653Z,77.12
2022-08-29T04:25:49.484Z,76.89
2022-08-29T04:28:21.400Z,76.74
2022-08-29T04:30:54.949Z,76.99
2022-08-29T04:33:27.996Z,76.90
2022-08-29T04:36:00.181Z,76.89
2022-08-29T04:38:32.120Z,76.74
2022-08-29T04:41:08.206Z,76.89
2022-08-29T04:43:40.261Z,76.68
2022-08-29T04:46:24.108Z,76.69
2022-08-29T04:49:00.568Z,76.56
2022-08-29T04:51:36.871Z,76.55
2022-08-29T04:54:09.432Z,76.42
2022-08-29T04:56:45.784Z,76.37
2022-08-29T04:59:20.509Z,76.41
2022-08-29T05:01:52.466Z,76.33
2022-08-29T05:04:24.441Z,76.10
2022-08-29T05:06:56.494Z,75.86
2022-08-29T05:09:28.653Z,76.07
2022-08-29T05:12:00.714Z,75.73
2022-08-29T05:14:32.623Z,75.31
2022-08-29T05:17:04.688Z,75.08
2022-08-29T05:19:42.879Z,75.02
2022-08-29T05:22:19.744Z,74.96
2022-08-29T05:24:52.796Z,74.77
2022-08-29T05:27:24.899Z,74.64
2022-08-29T05:29:58.525Z,74.41
2022-08-29T05:32:30.860Z,74.39
2022-08-29T05:35:04.123Z,74.24
2022-08-29T05:37:36.435Z,73.83
2022-08-29T05:40:10.347Z,73.69
2022-08-29T05:42:42.256Z,73.48
2022-08-29T05:45:14.985Z,73.30
2022-08-29T05:47:47.038Z,73.16
2022-08-29T05:50:19.323Z,73.26
2022-08-29T05:52:51.286Z,73.25
2022-08-29T05:55:23.850Z,73.35
2022-08-29T05:57:55.773Z,73.17
2022-08-29T06:00:28.080Z,73.38
2022-08-29T06:03:00.310Z,73.34
2022-08-29T06:05:32.371Z,73.15
2022-08-29T06:08:05.047Z,73.12
2022-08-29T06:10:40.508Z,73.31
2022-08-29T06:13:12.679Z,72.98
2022-08-29T06:15:46.759Z,72.80
2022-08-29T06:18:18.712Z,72.81
2022-08-29T06:20:59.421Z,72.62
2022-08-29T06:23:31.343Z,72.66
2022-08-29T06:26:03.907Z,72.30
2022-08-29T06:28:37.998Z,71.98
2022-08-29T06:31:12.673Z,71.89
2022-08-29T06:33:45.196Z,71.64
2022-08-29T06:36:17.425Z,71.36
2022-08-29T06:38:49.728Z,71.10
2022-08-29T06:41:21.893Z,70.87
2022-08-29T06:43:55.728Z,70.74
2022-08-29T06:46:30.615Z,70.74
2022-08-29T06:49:04.843Z,70.91
2022-08-29T06:51:38.878Z,70.78
2022-08-29T06:54:12.084Z,70.88
2022-08-29T06:56:45.779Z,70.89
2022-08-29T06:59:18.848Z,70.97
2022-08-29T07:01:50.990Z,71.04
2022-08-29T07:04:23.155Z,70.94
2022-08-29T07:06:58.830Z,70.88
2022-08-29T07:09:32.414Z,70.94
2022-08-29T07:12:06.025Z,70.83
2022-08-29T07:14:38.042Z,70.59
2022-08-29T07:17:10.711Z,70.33
2022-08-29T07:19:54.467Z,70.14
2022-08-29T07:22:27.206Z,70.33
2022-08-29T07:24:59.592Z,70.05
2022-08-29T07:27:31.517Z,69.37
2022-08-29T07:30:03.644Z,68.98
2022-08-29T07:32:35.547Z,68.57
2022-08-29T07:35:11.569Z,68.21
2022-08-29T07:37:50.243Z,67.77
2022-08-29T07:40:22.911Z,67.44
2022-08-29T07:42:55.599Z,67.46
2022-08-29T07:45:27.451Z,67.62
2022-08-29T07:47:59.780Z,67.70
2022-08-29T07:50:31.683Z,67.66
2022-08-29T07:53:03.567Z,67.14
2022-08-29T07:55:35.608Z,67.09
2022-08-29T07:58:07.699Z,67.24
2022-08-29T08:00:39.736Z,66.95
2022-08-29T08:03:14.287Z,66.38
2022-08-29T08:05:46.344Z,65.08
2022-08-29T08:08:18.802Z,64.21
2022-08-29T08:10:52.301Z,63.79
2022-08-29T08:13:24.381Z,63.03
2022-08-29T08:15:56.677Z,62.39
2022-08-29T08:18:29.722Z,62.41
2022-08-29T08:21:01.803Z,62.67
2022-08-29T08:23:33.855Z,62.51
2022-08-29T08:26:06.360Z,62.72
2022-08-29T08:28:39.120Z,62.81
2022-08-29T08:31:14.194Z,63.09
2022-08-29T08:33:47.920Z,63.30
2022-08-29T08:36:23.237Z,63.35
2022-08-29T08:38:56.819Z,63.09
2022-08-29T08:41:39.266Z,62.81
2022-08-29T08:44:35.324Z,62.38
2022-08-29T08:47:10.465Z,62.38
2022-08-29T08:49:50.165Z,62.94
2022-08-29T08:52:29.122Z,63.16
2022-08-29T08:55:06.051Z,63.42
2022-08-29T08:57:46.379Z,63.59
2022-08-29T09:00:18.470Z,63.50
2022-08-29T09:03:03.823Z,63.43
2022-08-29T09:05:49.840Z,63.33
2022-08-29T09:08:31.254Z,63.39
2022-08-29T09:11:09.754Z,62.73
2022-08-29T09:13:54.323Z,62.57
2022-08-29T09:16:31.659Z,62.09
2022-08-29T09:19:08.058Z,60.47
2022-08-29T09:21:48.427Z,57.66
2022-08-29T09:24:28.897Z,56.13
2022-08-29T09:27:01.000Z,55.36
2022-08-29T09:29:33.962Z,54.06
2022-08-29T09:32:16.582Z,52.70
2022-08-29T09:35:07.929Z,52.42
2022-08-29T09:37:41.271Z,53.07
2022-08-29T09:40:19.298Z,52.26
2022-08-29T09:43:04.183Z,51.32
2022-08-29T09:45:36.073Z,49.98
2022-08-29T09:48:19.567Z,49.26
2022-08-29T09:50:51.610Z,48.16
2022-08-29T09:53:26.931Z,47.79
2022-08-29T09:56:08.471Z,47.47
2022-08-29T09:58:43.036Z,45.34
2022-08-29T10:01:26.211Z,44.38
2022-08-29T10:04:02.642Z,43.87
2022-08-29T10:06:44.246Z,43.24
2022-08-29T10:09:28.839Z,42.27
2022-08-29T10:12:07.192Z,41.23
2022-08-29T10:14:49.734Z,40.67
2022-08-29T10:17:47.343Z,40.40
2022-08-29T10:20:21.014Z,39.67
2022-08-29T10:23:04.384Z,39.21
2022-08-29T10:25:40.458Z,39.27
2022-08-29T10:28:21.586Z,39.05
2022-08-29T10:30:57.984Z,39.38
2022-08-29T10:33:34.680Z,39.84
2022-08-29T10:36:14.091Z,40.39
2022-08-29T10:38:51.200Z,40.46
2022-08-29T10:41:33.474Z,39.36
2022-08-29T10:44:20.439Z,38.71
2022-08-29T10:47:04.554Z,38.20
2022-08-29T10:49:46.911Z,38.09
2022-08-29T10:52:27.713Z,39.21
2022-08-29T10:55:09.861Z,39.14
2022-08-29T10:58:03.501Z,39.19
2022-08-29T11:00:43.433Z,38.86
2022-08-29T11:03:30.078Z,39.33
2022-08-29T11:06:06.082Z,39.05
2022-08-29T11:08:45.723Z,38.99
2022-08-29T11:11:22.539Z,38.32
2022-08-29T11:14:03.527Z,37.93
2022-08-29T11:16:43.436Z,37.89
2022-08-29T11:19:22.630Z,37.42
2022-08-29T11:22:00.107Z,37.77
2022-08-29T11:24:38.004Z,38.11
2022-08-29T11:27:20.389Z,38.64
2022-08-29T11:30:06.393Z,39.08
2022-08-29T11:32:52.272Z,38.32
2022-08-29T11:35:32.512Z,38.52
2022-08-29T11:38:18.738Z,37.69
2022-08-29T11:44:05.567Z,37.49
2022-08-29T11:46:44.221Z,37.83
2022-08-29T11:49:33.986Z,37.88
2022-08-29T11:52:22.497Z,37.73
2022-08-29T11:55:18.808Z,37.34
2022-08-29T11:58:04.184Z,36.71
2022-08-29T12:00:45.409Z,36.82
2022-08-29T12:03:56.917Z,36.96
2022-08-29T12:06:37.157Z,37.31
2022-08-29T12:09:27.539Z,37.83
2022-08-29T12:12:39.867Z,37.76
2022-08-29T12:15:41.893Z,37.50
2022-08-29T12:18:36.669Z,37.79
2022-08-29T12:21:47.232Z,37.97
2022-08-29T12:24:55.183Z,37.85
2022-08-29T12:28:01.075Z,38.24
2022-08-29T12:30:38.613Z,37.94
2022-08-29T12:33:25.354Z,38.00
2022-08-29T12:36:19.265Z,38.30
2022-08-29T12:39:04.471Z,38.22
2022-08-29T12:41:49.784Z,38.38
2022-08-29T12:44:28.027Z,38.04
2022-08-29T12:47:08.657Z,38.02
2022-08-29T12:49:50.950Z,38.77
2022-08-29T12:52:27.982Z,38.96
2022-08-29T12:55:19.335Z,38.67
2022-08-29T12:57:52.405Z,38.59
2022-08-29T13:00:28.275Z,38.35
2022-08-29T13:03:03.611Z,38.25
2022-08-29T13:05:38.692Z,38.28
2022-08-29T13:08:13.591Z,38.32
2022-08-29T13:10:58.811Z,38.31
2022-08-29T13:13:31.263Z,37.51
2022-08-29T13:16:07.024Z,37.53
2022-08-29T13:18:53.947Z,37.60
2022-08-29T13:21:33.200Z,36.91
2022-08-29T13:24:11.802Z,37.07
2022-08-29T13:27:04.241Z,37.47
2022-08-29T13:29:41.932Z,37.46
2022-08-29T13:32:26.892Z,37.28
2022-08-29T13:35:19.127Z,37.31
2022-08-29T13:38:18.541Z,37.21
2022-08-29T13:40:52.124Z,36.90
2022-08-29T13:43:35.141Z,36.96
2022-08-29T13:46:18.152Z,37.20
2022-08-29T13:48:58.926Z,37.43
2022-08-29T13:51:30.918Z,37.35
2022-08-29T13:54:03.628Z,37.45
2022-08-29T13:56:38.761Z,37.12
2022-08-29T13:59:11.942Z,37.44
2022-08-29T14:04:39.851Z,37.10
2022-08-29T14:07:13.062Z,37.03
2022-08-29T14:09:46.680Z,36.94
2022-08-29T14:12:19.386Z,37.21
2022-08-29T14:14:53.793Z,36.98
2022-08-29T14:17:26.609Z,37.09
2022-08-29T14:19:58.659Z,37.23
2022-08-29T14:22:31.406Z,37.54
2022-08-29T14:25:03.434Z,37.70
2022-08-29T14:27:35.627Z,37.84
2022-08-29T14:30:10.790Z,37.50
2022-08-29T14:32:42.953Z,37.53
2022-08-29T14:35:20.822Z,37.78
2022-08-29T14:38:00.116Z,37.43
2022-08-29T14:40:33.946Z,37.67
2022-08-29T14:43:06.389Z,38.03
2022-08-29T14:45:38.695Z,38.06
2022-08-29T14:48:10.956Z,38.30
2022-08-29T14:50:42.862Z,38.20
2022-08-29T14:53:15.037Z,38.43
2022-08-29T14:55:47.041Z,38.55
2022-08-29T14:58:19.187Z,38.56
2022-08-29T15:00:51.589Z,38.71
2022-08-29T15:03:26.728Z,39.10
2022-08-29T15:05:59.691Z,39.19
2022-08-29T15:08:31.619Z,39.26
2022-08-29T15:11:04.197Z,39.21
2022-08-29T15:13:36.181Z,39.37
2022-08-29T15:16:09.087Z,39.56
2022-08-29T15:19:26.474Z,39.57
2022-08-29T15:21:33.918Z,39.52
2022-08-29T15:24:07.143Z,39.67
2022-08-29T15:26:39.251Z,39.76
2022-08-29T15:29:11.674Z,39.66
2022-08-29T15:31:43.818Z,39.66
2022-08-29T15:34:15.933Z,39.80
2022-08-29T15:36:47.839Z,39.87
2022-08-29T15:39:22.959Z,39.95
2022-08-29T15:41:55.241Z,40.35
2022-08-29T15:44:28.321Z,40.26
2022-08-29T15:47:00.465Z,40.49
2022-08-29T15:49:34.082Z,40.82
2022-08-29T15:52:06.262Z,41.00
2022-08-29T15:54:38.255Z,41.32
2022-08-29T15:57:11.177Z,41.43
2022-08-29T15:59:57.567Z,41.53
2022-08-29T16:02:29.324Z,41.50
2022-08-29T16:05:02.139Z,41.37
2022-08-29T16:07:34.198Z,41.54
2022-08-29T16:10:11.028Z,41.50
2022-08-29T16:12:43.910Z,41.50
2022-08-29T16:15:16.476Z,41.43
2022-08-29T16:17:48.976Z,41.48
2022-08-29T16:20:21.001Z,41.48
2022-08-29T16:22:53.249Z,41.65
2022-08-29T16:25:26.933Z,41.77
2022-08-29T16:28:06.209Z,41.90
2022-08-29T16:30:46.214Z,42.17
2022-08-29T16:33:19.617Z,42.38
2022-08-29T16:35:51.836Z,42.51
2022-08-29T16:38:23.857Z,42.72
2022-08-29T16:41:06.152Z,42.86
2022-08-29T16:43:39.473Z,42.89
2022-08-29T16:46:14.870Z,43.01
2022-08-29T16:48:47.238Z,43.14
2022-08-29T16:51:20.750Z,43.39
2022-08-29T16:53:52.731Z,43.42
2022-08-29T16:56:25.817Z,43.54
2022-08-29T16:59:01.650Z,43.59
2022-08-29T17:01:36.841Z,43.84
2022-08-29T17:04:12.048Z,43.92
2022-08-29T17:06:46.589Z,44.01
2022-08-29T17:09:19.224Z,44.20
2022-08-29T17:11:51.151Z,44.55
2022-08-29T17:14:24.310Z,44.73
2022-08-29T17:16:56.942Z,44.86
2022-08-29T17:19:29.051Z,44.94
2022-08-29T17:22:05.235Z,45.18
2022-08-29T17:24:37.157Z,45.40
2022-08-29T17:27:10.430Z,45.66
2022-08-29T17:29:43.142Z,45.83
2022-08-29T17:32:15.648Z,45.97
2022-08-29T17:34:48.653Z,45.86
2022-08-29T17:37:20.529Z,46.54
2022-08-29T17:39:52.579Z,46.60
2022-08-29T17:42:25.482Z,46.78
2022-08-29T17:44:58.554Z,47.04
2022-08-29T17:47:30.760Z,47.01
2022-08-29T17:50:02.977Z,47.23
2022-08-29T17:52:34.962Z,47.48
2022-08-29T17:55:08.474Z,47.84
2022-08-29T17:57:40.453Z,47.93
2022-08-29T18:00:16.364Z,48.09
2022-08-29T18:02:48.719Z,48.60
2022-08-29T18:05:21.328Z,48.53
2022-08-29T18:07:53.140Z,48.92
2022-08-29T18:10:25.558Z,49.06
2022-08-29T18:12:57.616Z,49.12
2022-08-29T18:15:29.976Z,49.25
2022-08-29T18:18:09.709Z,49.57
2022-08-29T18:20:41.738Z,49.58
2022-08-29T18:23:13.971Z,49.97
2022-08-29T18:25:46.192Z,50.12
2022-08-29T18:28:19.063Z,50.44
2022-08-29T18:30:51.545Z,50.47
2022-08-29T18:33:28.466Z,50.60
2022-08-29T18:36:08.384Z,50.79
2022-08-29T18:38:40.331Z,51.07
2022-08-29T18:41:12.730Z,50.94
2022-08-29T18:43:44.943Z,51.54
2022-08-29T18:46:16.989Z,51.82
2022-08-29T18:48:48.955Z,52.25
2022-08-29T18:51:21.881Z,52.43
2022-08-29T18:53:54.062Z,52.45
2022-08-29T18:56:26.376Z,52.95
2022-08-29T18:58:59.317Z,53.05
2022-08-29T19:01:32.312Z,53.20
2022-08-29T19:04:05.108Z,53.44
2022-08-29T19:06:37.106Z,53.73
2022-08-29T19:09:09.234Z,53.81
2022-08-29T19:11:41.123Z,53.94
2022-08-29T19:14:13.637Z,54.22
2022-08-29T19:16:45.681Z,54.47
2022-08-29T19:19:17.706Z,54.68
2022-08-29T19:21:52.476Z,54.91
2022-08-29T19:24:24.586Z,55.11
2022-08-29T19:26:57.028Z,55.17
2022-08-29T19:29:29.102Z,55.41
2022-08-29T19:32:01.165Z,55.76
2022-08-29T19:34:33.109Z,55.87
2022-08-29T19:37:06.548Z,56.04
2022-08-29T19:39:42.056Z,56.30
2022-08-29T19:42:16.237Z,56.54
2022-08-29T19:44:49.162Z,56.80
2022-08-29T19:47:21.145Z,57.02
2022-08-29T19:49:53.080Z,57.16
2022-08-29T19:52:24.947Z,57.33
2022-08-29T19:55:00.179Z,57.56
2022-08-29T19:57:32.325Z,57.76
2022-08-29T20:00:13.505Z,57.75
2022-08-29T20:02:46.143Z,58.03
2022-08-29T20:05:19.104Z,58.31
2022-08-29T20:07:54.240Z,58.39
2022-08-29T20:10:29.260Z,58.66
2022-08-29T20:13:01.792Z,58.81
2022-08-29T20:15:34.196Z,59.08
2022-08-29T20:18:06.634Z,59.24
2022-08-29T20:20:41.864Z,59.40
2022-08-29T20:23:14.764Z,59.62
2022-08-29T20:25:47.280Z,59.85
2022-08-29T20:28:19.381Z,59.89
2022-08-29T20:30:51.518Z,60.06
2022-08-29T20:33:23.364Z,60.18
2022-08-29T20:36:13.422Z,60.46
2022-08-29T20:38:45.519Z,60.79
2022-08-29T20:41:21.249Z,60.72
2022-08-29T20:43:53.434Z,60.93
2022-08-29T20:46:25.592Z,60.90
2022-08-29T20:48:58.081Z,61.06
2022-08-29T20:51:29.966Z,61.23
2022-08-29T20:54:01.829Z,61.27
2022-08-29T20:56:34.151Z,61.34
2022-08-29T20:59:07.224Z,61.50
2022-08-29T21:01:40.322Z,61.74
2022-08-29T21:04:30.972Z,61.94
2022-08-29T21:07:05.636Z,62.28
2022-08-29T21:09:40.347Z,62.17
2022-08-29T21:12:13.617Z,62.34
2022-08-29T21:14:46.367Z,62.27
2022-08-29T21:17:19.586Z,62.56
2022-08-29T21:19:51.492Z,62.58
2022-08-29T21:22:25.209Z,62.82
2022-08-29T21:24:58.350Z,62.76
2022-08-29T21:27:30.743Z,62.94
2022-08-29T21:30:02.714Z,63.11
2022-08-29T21:32:34.644Z,63.18
2022-08-29T21:35:07.343Z,63.33
2022-08-29T21:37:39.228Z,63.37
2022-08-29T21:40:14.416Z,63.50
2022-08-29T21:42:46.465Z,63.50
2022-08-29T21:45:18.527Z,63.76
2022-08-29T21:47:52.327Z,63.89
2022-08-29T21:50:26.068Z,63.91
2022-08-29T21:52:57.986Z,64.03
2022-08-29T21:55:30.476Z,64.08
2022-08-29T21:58:02.428Z,64.32
2022-08-29T22:00:36.426Z,64.39
2022-08-29T22:03:12.363Z,64.54
2022-08-29T22:05:44.858Z,64.62
2022-08-29T22:08:17.232Z,64.78
2022-08-29T22:10:49.994Z,64.85
2022-08-29T22:13:22.199Z,64.90
2022-08-29T22:16:11.906Z,65.07
2022-08-29T22:18:43.919Z,65.17
2022-08-29T22:21:16.508Z,65.34
2022-08-29T22:23:48.358Z,65.48
2022-08-29T22:26:21.060Z,65.58
2022-08-29T22:28:53.001Z,65.63
2022-08-29T22:31:26.756Z,65.77
2022-08-29T22:33:58.715Z,66.01
2022-08-29T22:36:30.763Z,66.17
2022-08-29T22:39:03.873Z,66.27
2022-08-29T22:41:35.869Z,66.43
2022-08-29T22:44:52.637Z,66.57
2022-08-29T22:47:00.538Z,66.74
2022-08-29T22:49:34.143Z,66.80
2022-08-29T22:52:06.670Z,66.93
2022-08-29T22:54:43.494Z,67.04
2022-08-29T22:57:19.130Z,67.14
2022-08-29T22:59:51.464Z,67.30
2022-08-29T23:02:23.637Z,67.33
2022-08-29T23:04:55.861Z,67.41
2022-08-29T23:07:27.818Z,67.48
2022-08-29T23:10:00.210Z,67.52
2022-08-29T23:12:32.304Z,67.71
2022-08-29T23:15:05.087Z,67.75
2022-08-29T23:17:37.154Z,67.95
2022-08-29T23:20:11.991Z,68.09
2022-08-29T23:22:44.371Z,68.23
2022-08-29T23:25:16.315Z,68.28
2022-08-29T23:27:48.694Z,68.46
2022-08-29T23:30:20.563Z,68.48
2022-08-29T23:32:52.822Z,68.65
2022-08-29T23:35:25.118Z,68.64
2022-08-29T23:37:58.673Z,68.75
2022-08-29T23:40:30.555Z,68.81
2022-08-29T23:43:02.828Z,69.00
2022-08-29T23:45:35.032Z,69.07
2022-08-29T23:48:07.672Z,68.96
2022-08-29T23:50:40.085Z,69.30
2022-08-29T23:53:12.236Z,69.37
2022-08-29T23:55:44.349Z,69.44
2022-08-29T23:58:16.497Z,69.55
